Leona, Texas
Current Conditions -  °F | °C
As of 2:15 PM on Friday 31 Oct 2014 (Local Time) from KDKR Reporting Station
Clear Clear  
Wind Chill: 73°   Ceiling: Unl
Heat Index: 73°   Visibility: 10mi
Dew Point: 48°   Wind: 9mph
Humidity: 41%   Direction: 360°N
Pressure: 30.24"   Gusts: NA
Location:  31.15°N, 95.97°W
Report Text: KDKR 311915Z AUTO 36008KT 10SM CLR 23/09 A3024 RMK AO2
Loading
Personal Weather Stations






























Interactive Weather Map
Tropical Storm Tracking
New forecast layout! Learn more

10-Day Weather Forecast

Advertisements
Track Severe Weather on mobile